Time;durP1;ratioP1;P1;durP2;ratioP2;P2;SDS_P1;SDS_P2;PMS_P1;PMS_P2;Temp;Humidity;BMP_temperature;BMP_pressure;BME280_temperature;BME280_humidity;BME280_pressure;Samples;Min_cycle;Max_cycle;Signal;HPM_P1;HPM_P2
2021/01/17 00:01:05;;;;;;;78.95;32.65;;;;;;;-5.07;32.14;100581.05;1804367;78;20947;-79
2021/01/17 00:03:35;;;;;;;67.78;30.12;;;;;;;-5.14;31.97;100584.33;1799719;79;21566;-78
2021/01/17 00:06:03;;;;;;;70.28;31.33;;;;;;;-5.20;32.06;100581.95;1807010;78;21126;-78
2021/01/17 00:08:31;;;;;;;55.88;26.23;;;;;;;-5.13;32.17;100579.98;1810018;78;21147;-79
2021/01/17 00:11:01;;;;;;;68.22;28.10;;;;;;;-5.10;32.09;100584.61;1811045;78;21160;-77
2021/01/17 00:13:29;;;;;;;110.83;42.53;;;;;;;-5.07;32.11;100582.36;1805237;78;21184;-78
2021/01/17 00:15:56;;;;;;;105.40;41.83;;;;;;;-5.00;32.14;100580.36;1814892;78;21124;-78
2021/01/17 00:18:24;;;;;;;106.17;39.53;;;;;;;-4.93;32.14;100576.16;1808511;78;21192;-78
2021/01/17 00:20:54;;;;;;;103.67;37.50;;;;;;;-4.89;31.91;100572.98;1809878;78;21415;-78
2021/01/17 00:23:22;;;;;;;63.78;26.77;;;;;;;-4.93;31.86;100565.72;1811842;78;21202;-78
2021/01/17 00:25:51;;;;;;;57.40;24.32;;;;;;;-4.94;31.96;100569.70;1807503;78;21686;-75
2021/01/17 00:28:19;;;;;;;54.33;25.25;;;;;;;-4.93;32.01;100572.70;1809017;78;21197;-78
2021/01/17 00:30:49;;;;;;;61.63;25.37;;;;;;;-4.97;31.93;100577.19;1823666;78;21331;-77
2021/01/17 00:33:17;;;;;;;59.60;24.37;;;;;;;-4.97;31.87;100580.25;1803023;79;21368;-78
2021/01/17 00:35:44;;;;;;;58.73;24.90;;;;;;;-4.95;31.85;100582.34;1802728;79;21180;-76
2021/01/17 00:38:12;;;;;;;48.55;21.42;;;;;;;-4.95;31.94;100583.64;1811722;78;21164;-77
2021/01/17 00:40:40;;;;;;;52.15;22.05;;;;;;;-4.96;31.88;100593.70;1812838;78;21152;-77
2021/01/17 00:43:08;;;;;;;50.15;21.65;;;;;;;-4.96;31.91;100598.93;1809165;78;21720;-78
2021/01/17 00:45:37;;;;;;;63.15;25.85;;;;;;;-4.99;31.92;100592.08;1816235;78;21195;-78
2021/01/17 00:48:08;;;;;;;69.20;29.57;;;;;;;-4.95;31.87;100590.17;1811892;78;21096;-77
2021/01/17 00:50:36;;;;;;;56.75;23.40;;;;;;;-4.95;31.85;100591.48;1812860;78;21419;-79
2021/01/17 00:53:06;;;;;;;54.00;22.40;;;;;;;-4.93;31.92;100592.30;1810139;78;21488;-79
2021/01/17 00:55:35;;;;;;;54.20;24.47;;;;;;;-4.92;31.89;100584.84;1811782;78;21180;-76
2021/01/17 00:58:08;;;;;;;51.33;21.37;;;;;;;-4.91;31.90;100587.85;1811906;78;21374;-77
2021/01/17 01:00:36;;;;;;;55.15;21.00;;;;;;;-4.91;31.95;100583.94;1803681;78;21231;-78
2021/01/17 01:03:09;;;;;;;56.28;24.32;;;;;;;-4.94;31.95;100590.59;1811797;78;21164;-76
2021/01/17 01:05:37;;;;;;;48.50;21.77;;;;;;;-4.93;32.00;100585.77;1802909;79;21184;-78
2021/01/17 01:08:07;;;;;;;49.48;21.82;;;;;;;-4.89;31.92;100582.13;1802960;79;21057;-77
2021/01/17 01:10:34;;;;;;;47.17;22.22;;;;;;;-4.88;31.95;100582.06;1802902;79;21321;-76
2021/01/17 01:13:02;;;;;;;58.00;25.68;;;;;;;-4.87;31.89;100582.45;1803084;79;21143;-77
2021/01/17 01:15:30;;;;;;;65.47;26.12;;;;;;;-4.90;32.01;100579.98;1803218;79;21021;-77
2021/01/17 01:18:01;;;;;;;64.25;26.35;;;;;;;-4.93;32.01;100573.55;1803019;79;21207;-80
2021/01/17 01:20:29;;;;;;;61.75;26.93;;;;;;;-4.92;31.95;100579.16;1802980;79;21160;-77
2021/01/17 01:22:57;;;;;;;51.68;23.47;;;;;;;-4.91;31.98;100581.32;1803141;79;22630;-75
2021/01/17 01:25:25;;;;;;;48.92;22.17;;;;;;;-4.87;31.95;100573.77;1803082;79;21196;-77
2021/01/17 01:27:54;;;;;;;54.85;25.40;;;;;;;-4.83;31.87;100572.75;1802971;79;21120;-77
2021/01/17 01:30:23;;;;;;;52.98;23.55;;;;;;;-4.78;31.87;100571.27;1802830;79;21187;-77
2021/01/17 01:32:51;;;;;;;53.42;23.30;;;;;;;-4.71;31.77;100576.67;1803199;79;21188;-79
2021/01/17 01:35:20;;;;;;;55.40;23.50;;;;;;;-4.67;31.72;100576.48;1802760;79;21787;-78
2021/01/17 01:37:48;;;;;;;51.75;23.35;;;;;;;-4.63;31.64;100572.85;1802888;79;21462;-75
2021/01/17 01:40:17;;;;;;;51.23;23.25;;;;;;;-4.61;31.60;100571.02;1802972;79;21164;-76
2021/01/17 01:42:45;;;;;;;51.13;22.27;;;;;;;-4.57;31.60;100569.60;1802914;79;21538;-77
2021/01/17 01:45:14;;;;;;;48.30;22.45;;;;;;;-4.58;31.49;100567.91;1803013;79;21521;-77
2021/01/17 01:47:41;;;;;;;54.75;24.00;;;;;;;-4.65;31.54;100565.97;1803007;79;21973;-76
2021/01/17 01:50:12;;;;;;;51.18;21.57;;;;;;;-4.70;31.61;100572.67;1802756;79;21144;-78
2021/01/17 01:52:40;;;;;;;55.00;22.48;;;;;;;-4.76;31.70;100569.46;1802856;79;21184;-79
2021/01/17 01:55:10;;;;;;;57.73;24.90;;;;;;;-4.78;31.82;100566.89;1803502;79;21365;-77
2021/01/17 01:57:37;;;;;;;47.53;21.82;;;;;;;-4.78;31.87;100560.36;1803103;79;21171;-78
2021/01/17 02:00:07;;;;;;;58.78;24.72;;;;;;;-4.77;31.95;100567.73;1803015;79;21648;-77
2021/01/17 02:02:44;;;;;;;54.00;24.35;;;;;;;-4.74;31.94;100569.78;1802930;79;21168;-79
2021/01/17 02:05:13;;;;;;;47.67;23.20;;;;;;;-4.71;31.86;100573.59;1802928;79;21482;-78
2021/01/17 02:08:06;;;;;;;54.35;23.83;;;;;;;-4.75;31.86;100575.92;1802786;79;21176;-78
2021/01/17 02:10:35;;;;;;;71.30;30.05;;;;;;;-4.77;31.93;100571.20;1802605;79;21212;-75
2021/01/17 02:13:08;;;;;;;103.50;38.17;;;;;;;-4.82;32.05;100565.75;1802949;79;21764;-78
2021/01/17 02:15:37;;;;;;;114.30;44.35;;;;;;;-4.88;32.15;100560.31;1804160;78;21176;-77
2021/01/17 02:18:05;;;;;;;108.55;42.98;;;;;;;-4.87;32.13;100560.70;1809510;78;21203;-78
2021/01/17 02:20:33;;;;;;;130.63;52.38;;;;;;;-4.90;32.09;100556.92;1803635;78;21181;-77
2021/01/17 02:23:06;;;;;;;105.92;43.98;;;;;;;-4.93;32.13;100563.56;1748831;79;21125;-77
2021/01/17 02:25:40;;;;;;;118.47;54.03;;;;;;;-4.97;32.15;100561.97;1788325;80;21547;-77
2021/01/17 02:28:14;;;;;;;138.40;60.10;;;;;;;-5.05;32.11;100565.31;1822699;78;21191;-77
2021/01/17 02:30:47;;;;;;;141.03;57.23;;;;;;;-5.19;32.05;100567.13;1823105;78;21152;-76
2021/01/17 02:33:22;;;;;;;142.03;60.00;;;;;;;-5.44;31.88;100564.56;1808206;79;21154;-76
2021/01/17 02:35:54;;;;;;;123.80;53.02;;;;;;;-5.75;32.04;100569.53;1803817;79;21160;-78
2021/01/17 02:38:54;;;;;;;125.02;52.78;;;;;;;-5.97;32.27;100578.56;1803410;79;21360;-78
2021/01/17 02:41:47;;;;;;;122.47;49.38;;;;;;;-6.17;32.40;100574.02;1809018;78;21176;-76
2021/01/17 02:44:15;;;;;;;124.65;50.73;;;;;;;-6.36;32.53;100572.87;1822589;78;21138;-77
2021/01/17 02:46:43;;;;;;;120.35;51.60;;;;;;;-6.54;32.57;100580.84;1822647;78;21153;-76
2021/01/17 02:49:11;;;;;;;138.43;56.98;;;;;;;-6.67;32.70;100575.61;1797932;78;21426;-75
2021/01/17 02:51:39;;;;;;;146.98;60.95;;;;;;;-6.65;32.94;100574.64;1817845;78;21192;-78
2021/01/17 02:54:32;;;;;;;154.63;61.53;;;;;;;-6.54;32.83;100579.55;1826308;78;21095;-78
2021/01/17 02:57:09;;;;;;;124.12;51.75;;;;;;;-6.43;32.63;100579.20;1826486;78;21097;-76
2021/01/17 02:59:44;;;;;;;141.85;57.13;;;;;;;-6.48;32.14;100573.28;1826013;78;21133;-77
2021/01/17 03:02:12;;;;;;;139.70;56.45;;;;;;;-6.72;32.10;100574.44;1801507;78;21125;-77
2021/01/17 03:05:01;;;;;;;131.10;55.52;;;;;;;-6.84;32.29;100565.69;1803352;77;21188;-77
2021/01/17 03:07:31;;;;;;;152.07;57.83;;;;;;;-6.93;32.35;100569.87;1856364;77;21173;-78
2021/01/17 03:10:00;;;;;;;143.70;60.92;;;;;;;-7.02;32.41;100568.83;1852303;77;21216;-77
2021/01/17 03:12:28;;;;;;;152.53;61.30;;;;;;;-7.10;32.40;100564.29;1797307;77;21192;-76
2021/01/17 03:14:56;;;;;;;175.18;69.58;;;;;;;-7.18;32.36;100567.11;1854700;77;21144;-77
2021/01/17 03:17:24;;;;;;;153.18;63.17;;;;;;;-7.30;32.41;100576.58;1817347;77;21169;-75
2021/01/17 03:19:52;;;;;;;176.90;72.45;;;;;;;-7.41;32.52;100569.90;1803285;79;20985;-76
2021/01/17 03:22:20;;;;;;;181.70;72.20;;;;;;;-7.43;32.51;100564.35;1802915;79;21176;-77
2021/01/17 03:24:48;;;;;;;190.80;75.60;;;;;;;-7.46;32.49;100565.73;1802854;79;21163;-77
2021/01/17 03:27:16;;;;;;;184.95;71.72;;;;;;;-7.52;32.49;100566.75;1802441;79;21112;-77
2021/01/17 03:29:43;;;;;;;196.63;77.32;;;;;;;-7.57;32.67;100571.68;1802544;79;21414;-75
2021/01/17 03:32:12;;;;;;;209.92;89.17;;;;;;;-7.65;32.77;100567.98;1811160;78;21171;-76
2021/01/17 03:34:40;;;;;;;208.15;80.57;;;;;;;-7.68;32.86;100566.30;1821307;78;21121;-75
2021/01/17 03:37:08;;;;;;;206.70;81.42;;;;;;;-7.72;32.95;100562.09;1835671;78;21165;-78
2021/01/17 03:39:36;;;;;;;194.20;78.72;;;;;;;-7.80;32.95;100564.04;1835773;78;21152;-75
2021/01/17 03:42:04;;;;;;;190.85;73.07;;;;;;;-7.78;33.08;100562.69;1835585;78;21170;-77
2021/01/17 03:44:32;;;;;;;177.35;67.85;;;;;;;-7.76;33.06;100556.57;1835346;78;21164;-76
2021/01/17 03:47:00;;;;;;;181.57;68.78;;;;;;;-7.75;33.04;100564.77;1835712;78;21108;-76
2021/01/17 03:49:28;;;;;;;174.75;70.37;;;;;;;-7.79;33.06;100559.69;1835709;78;21175;-75
2021/01/17 03:51:56;;;;;;;178.15;69.95;;;;;;;-7.92;32.99;100561.30;1835715;78;21179;-76
2021/01/17 03:54:24;;;;;;;164.05;65.70;;;;;;;-8.02;33.23;100565.03;1835894;78;22639;-76
2021/01/17 03:56:53;;;;;;;169.57;63.30;;;;;;;-7.98;33.22;100572.31;1835689;78;21200;-77
2021/01/17 03:59:21;;;;;;;170.35;66.97;;;;;;;-8.02;33.16;100577.17;1835746;78;21459;-76
2021/01/17 04:01:49;;;;;;;172.32;69.50;;;;;;;-8.12;33.22;100586.95;1813615;78;21655;-76
2021/01/17 04:04:17;;;;;;;146.55;57.93;;;;;;;-8.20;33.23;100577.18;1822573;78;21183;-76
2021/01/17 04:06:45;;;;;;;142.22;56.53;;;;;;;-8.21;33.33;100571.58;1793916;80;21793;-78
2021/01/17 04:09:16;;;;;;;129.65;50.25;;;;;;;-8.15;33.37;100578.37;1822043;78;21183;-77
2021/01/17 04:11:44;;;;;;;125.27;51.83;;;;;;;-8.07;33.24;100572.55;1822046;78;21169;-76
2021/01/17 04:14:12;;;;;;;136.55;54.23;;;;;;;-8.07;33.18;100571.25;1788291;80;21116;-76
2021/01/17 04:16:40;;;;;;;122.58;52.65;;;;;;;-8.09;33.22;100576.45;1822901;77;21595;-77
2021/01/17 04:19:09;;;;;;;131.18;52.70;;;;;;;-8.09;33.22;100577.75;1822276;78;21892;-75
2021/01/17 04:21:38;;;;;;;131.82;53.85;;;;;;;-8.11;33.10;100580.85;1823098;77;21162;-76
2021/01/17 04:24:07;;;;;;;124.72;54.80;;;;;;;-8.17;33.17;100579.27;1849046;77;21374;-76
2021/01/17 04:26:35;;;;;;;138.45;54.80;;;;;;;-8.19;33.20;100576.28;1826803;78;21619;-78
2021/01/17 04:29:03;;;;;;;133.45;52.70;;;;;;;-8.21;33.31;100577.62;1826712;78;21133;-77
2021/01/17 04:31:43;;;;;;;143.82;54.48;;;;;;;-8.21;33.37;100576.33;1856207;77;21571;-78
2021/01/17 04:34:12;;;;;;;131.00;51.28;;;;;;;-8.17;33.50;100584.47;1855885;77;21208;-79
2021/01/17 04:36:47;;;;;;;128.07;53.17;;;;;;;-8.05;33.47;100586.34;1856116;77;21158;-77
2021/01/17 04:39:15;;;;;;;144.97;56.53;;;;;;;-8.02;33.50;100578.03;1856980;77;21069;-77
2021/01/17 04:41:44;;;;;;;139.32;56.53;;;;;;;-7.92;33.57;100583.84;1856381;77;21518;-76
2021/01/17 04:44:15;;;;;;;148.53;57.85;;;;;;;-7.78;33.52;100575.69;1852128;77;22667;-77
2021/01/17 04:46:43;;;;;;;130.20;52.00;;;;;;;-7.65;33.58;100566.67;1817795;77;21179;-77
2021/01/17 04:49:11;;;;;;;122.02;49.93;;;;;;;-7.52;33.46;100575.01;1826695;78;21131;-78
2021/01/17 04:51:40;;;;;;;128.62;51.30;;;;;;;-7.45;33.31;100575.23;1802932;79;21198;-78
2021/01/17 04:54:09;;;;;;;131.30;54.88;;;;;;;-7.37;33.23;100574.58;1724704;79;21203;-78
2021/01/17 04:56:48;;;;;;;132.20;54.38;;;;;;;-7.26;33.23;100573.84;1802440;79;21356;-77
2021/01/17 04:59:24;;;;;;;121.25;51.02;;;;;;;-7.10;33.22;100566.89;1833830;78;21184;-77
2021/01/17 05:01:55;;;;;;;118.80;50.73;;;;;;;-6.97;32.98;100566.94;1822356;78;21146;-77
2021/01/17 05:04:50;;;;;;;115.42;48.30;;;;;;;-6.97;32.85;100569.55;1855545;77;21056;-77
2021/01/17 05:07:23;;;;;;;124.27;50.65;;;;;;;-6.97;32.79;100574.76;1822135;78;21175;-76
2021/01/17 05:10:11;;;;;;;119.67;48.50;;;;;;;-7.08;32.89;100570.33;1823234;78;22648;-77
2021/01/17 05:12:42;;;;;;;;;;;;;;;-7.12;32.95;100570.00;1798520;78;21215;-77
2021/01/17 05:15:10;;;;;;;108.92;44.98;;;;;;;-7.20;33.00;100576.27;1854652;77;20272;-78
2021/01/17 05:17:41;;;;;;;111.03;44.05;;;;;;;-7.25;33.09;100575.55;1823022;78;21200;-76
2021/01/17 05:20:09;;;;;;;109.80;44.63;;;;;;;-7.17;33.24;100572.73;1799708;79;21164;-77
2021/01/17 05:22:37;;;;;;;104.23;42.60;;;;;;;-7.06;33.17;100570.66;1838842;77;21360;-75
2021/01/17 05:25:07;;;;;;;108.37;45.67;;;;;;;-7.00;33.06;100570.48;1821063;78;21156;-77
2021/01/17 05:27:36;;;;;;;116.88;44.45;;;;;;;-7.00;32.90;100570.93;1794968;78;21177;-76
2021/01/17 05:30:08;;;;;;;108.85;44.23;;;;;;;-7.02;33.01;100570.14;1834837;77;21192;-77
2021/01/17 05:32:36;;;;;;;117.03;55.88;;;;;;;-7.00;32.90;100575.69;1814628;79;21459;-77
2021/01/17 05:35:06;;;;;;;102.45;45.60;;;;;;;-7.02;32.98;100575.34;1825291;78;21822;-76
2021/01/17 05:37:33;;;;;;;100.50;41.15;;;;;;;-7.01;32.94;100571.83;1855552;77;21188;-78
2021/01/17 05:40:07;;;;;;;102.58;41.83;;;;;;;-6.99;32.97;100568.75;1855689;77;21164;-79
2021/01/17 05:42:43;;;;;;;100.07;42.43;;;;;;;-6.96;33.21;100564.28;1846510;77;21225;-77
2021/01/17 05:45:20;;;;;;;108.35;45.65;;;;;;;-6.86;33.30;100564.86;1794830;78;21186;-77
2021/01/17 05:47:58;;;;;;;100.40;41.95;;;;;;;-6.71;33.33;100572.23;1792539;80;21793;-78
2021/01/17 05:50:28;;;;;;;111.72;50.43;;;;;;;-6.60;33.00;100574.95;1792439;79;21151;-77
2021/01/17 05:52:58;;;;;;;117.03;51.40;;;;;;;-6.60;32.80;100580.16;1792846;80;21178;-78
2021/01/17 05:55:40;;;;;;;119.62;50.17;;;;;;;-6.68;32.79;100583.84;1796032;78;21620;-76
2021/01/17 05:58:28;;;;;;;134.90;58.63;;;;;;;-6.72;32.90;100587.47;1825628;78;21154;-76
2021/01/17 06:01:16;;;;;;;139.55;54.38;;;;;;;-6.78;33.04;100583.72;1826211;78;21180;-78
2021/01/17 06:03:54;;;;;;;128.20;57.33;;;;;;;-6.79;33.23;100591.14;1825998;78;21174;-77
2021/01/17 06:06:30;;;;;;;117.25;55.10;;;;;;;-6.76;33.26;100588.45;1825573;78;21145;-78
2021/01/17 06:08:59;;;;;;;108.70;47.70;;;;;;;-6.73;33.25;100583.59;1825267;78;21193;-77
2021/01/17 06:11:28;;;;;;;121.20;49.95;;;;;;;-6.72;33.20;100588.77;1824553;78;21530;-78
2021/01/17 06:14:01;;;;;;;125.60;50.95;;;;;;;-6.71;33.28;100587.86;1824734;78;22106;-78
2021/01/17 06:16:37;;;;;;;118.20;48.40;;;;;;;-6.67;33.32;100580.81;1824289;77;21216;-79
2021/01/17 06:19:09;;;;;;;114.00;50.85;;;;;;;-6.64;33.36;100574.19;1824930;78;21031;-78
2021/01/17 06:21:38;;;;;;;122.70;51.10;;;;;;;-6.59;33.32;100572.75;1824977;78;22159;-76
2021/01/17 06:24:08;;;;;;;141.15;57.93;;;;;;;-6.60;33.36;100576.26;1824788;78;21197;-77
2021/01/17 06:26:37;;;;;;;154.38;62.25;;;;;;;-6.52;33.24;100572.97;1824940;77;21360;-77
2021/01/17 06:29:08;;;;;;;166.12;70.67;;;;;;;-6.56;32.98;100573.96;1824930;78;21185;-77
2021/01/17 06:31:36;;;;;;;176.30;68.15;;;;;;;-6.68;32.96;100573.88;1824886;78;21554;-77
2021/01/17 06:34:11;;;;;;;164.45;67.65;;;;;;;-6.80;32.92;100576.42;1824662;78;21185;-77
2021/01/17 06:36:44;;;;;;;182.97;73.07;;;;;;;-6.91;32.90;100575.41;1824486;78;21161;-78
2021/01/17 06:39:25;;;;;;;174.35;68.97;;;;;;;-7.02;32.87;100574.04;1819327;78;21463;-78
2021/01/17 06:42:00;;;;;;;187.25;73.83;;;;;;;-7.20;32.69;100580.63;1799104;78;21192;-77
2021/01/17 06:44:29;;;;;;;195.43;76.28;;;;;;;-7.49;32.90;100578.39;1812231;78;21136;-79
2021/01/17 06:46:58;;;;;;;189.18;73.85;;;;;;;-7.61;33.17;100584.36;1831799;78;21180;-78
2021/01/17 06:49:28;;;;;;;164.37;60.92;;;;;;;-7.63;33.41;100587.43;1831827;78;21156;-78
2021/01/17 06:51:56;;;;;;;196.02;83.15;;;;;;;-7.66;33.43;100576.23;1832439;78;22262;-78
2021/01/17 06:54:34;;;;;;;193.55;76.90;;;;;;;-7.76;33.65;100585.63;1832009;78;21204;-79
2021/01/17 06:57:02;;;;;;;197.07;81.20;;;;;;;-7.79;33.82;100583.94;1831728;78;21187;-77
2021/01/17 06:59:44;;;;;;;191.77;78.20;;;;;;;-7.90;33.91;100593.77;1831746;78;21189;-78
2021/01/17 07:02:31;;;;;;;196.65;81.32;;;;;;;-7.98;34.25;100593.95;1832643;78;21156;-77
2021/01/17 07:05:07;;;;;;;214.50;93.67;;;;;;;-7.98;34.46;100599.16;1833090;78;21195;-76
2021/01/17 07:08:12;;;;;;;210.17;89.90;;;;;;;-8.01;34.68;100592.72;1828488;78;21208;-78
2021/01/17 07:10:41;;;;;;;207.10;85.62;;;;;;;-7.81;35.29;100587.46;1832214;78;21216;-78
2021/01/17 07:13:17;;;;;;;184.22;78.42;;;;;;;-7.24;35.24;100582.45;1832171;78;21196;-80
2021/01/17 07:15:46;;;;;;;178.35;71.12;;;;;;;-6.86;34.51;100580.48;1831953;78;21555;-76
2021/01/17 07:18:16;;;;;;;173.22;74.40;;;;;;;-6.77;33.92;100588.02;1800712;78;21281;-80
2021/01/17 07:20:45;;;;;;;157.95;75.97;;;;;;;-6.80;33.77;100585.53;1831981;78;21204;-78
2021/01/17 07:23:16;;;;;;;155.82;67.15;;;;;;;-6.70;34.31;100576.54;1831935;78;21466;-78
2021/01/17 07:25:48;;;;;;;155.82;67.25;;;;;;;-6.34;34.31;100576.75;1831312;78;21203;-78
2021/01/17 07:28:21;;;;;;;138.80;58.68;;;;;;;-6.03;33.83;100580.08;1825891;78;21161;-78
2021/01/17 07:31:03;;;;;;;164.18;67.92;;;;;;;-5.93;33.23;100583.23;1821132;78;21467;-79
2021/01/17 07:33:36;;;;;;;176.80;70.85;;;;;;;-6.09;33.01;100580.72;1828351;77;21215;-77
2021/01/17 07:36:10;;;;;;;168.70;68.65;;;;;;;-6.34;33.15;100581.97;1855133;77;21568;-77
2021/01/17 07:38:41;;;;;;;189.22;76.05;;;;;;;-6.39;33.46;100577.75;1821362;78;21192;-78
2021/01/17 07:41:11;;;;;;;152.00;66.07;;;;;;;-6.25;33.79;100586.89;1855258;77;21500;-77
2021/01/17 07:43:44;;;;;;;153.80;64.03;;;;;;;-6.01;33.87;100590.45;1822312;78;21205;-78
2021/01/17 07:46:16;;;;;;;171.07;74.10;;;;;;;-5.77;33.66;100588.28;1855394;77;21177;-77
2021/01/17 07:48:47;;;;;;;141.43;60.17;;;;;;;-5.61;33.40;100578.19;1822122;78;21172;-79
2021/01/17 07:51:16;;;;;;;162.82;70.30;;;;;;;-5.55;32.91;100598.00;1856187;77;21164;-78
2021/01/17 07:54:21;;;;;;;156.47;67.62;;;;;;;-5.79;32.59;100598.39;1822882;78;21647;-77
2021/01/17 07:56:51;;;;;;;155.27;66.77;;;;;;;-6.02;32.87;100596.58;1856597;77;22623;-78
2021/01/17 07:59:26;;;;;;;167.90;74.77;;;;;;;-6.18;33.00;100603.56;1822613;78;21744;-79
2021/01/17 08:01:56;;;;;;;162.05;70.15;;;;;;;-6.20;33.32;100600.17;1856596;77;21133;-79
2021/01/17 08:04:23;;;;;;;172.00;73.47;;;;;;;-6.02;33.49;100609.16;1821601;78;21203;-76
2021/01/17 08:06:57;;;;;;;149.97;65.70;;;;;;;-5.81;33.35;100605.39;1830594;78;38272;-80
2021/01/17 08:09:44;;;;;;;161.95;68.25;;;;;;;-5.50;33.40;100607.82;1831887;78;21547;-77
2021/01/17 08:12:32;;;;;;;159.25;68.47;;;;;;;-5.13;33.23;100610.86;1831664;78;21208;-78
2021/01/17 08:15:16;;;;;;;147.10;66.42;;;;;;;-4.77;32.74;100614.31;1832621;78;21161;-79
2021/01/17 08:17:44;;;;;;;144.17;66.75;;;;;;;-4.47;32.45;100610.15;1832077;78;21602;-77
2021/01/17 08:20:28;;;;;;;152.25;66.12;;;;;;;-4.17;32.09;100608.11;1831990;78;21168;-79
2021/01/17 08:23:04;;;;;;;155.57;63.68;;;;;;;-4.02;31.93;100607.94;1831121;78;22011;-77
2021/01/17 08:25:56;;;;;;;145.72;69.00;;;;;;;-3.97;31.02;100619.06;1803134;78;28799;-78
2021/01/17 08:28:34;;;;;;;150.18;69.50;;;;;;;-4.21;30.86;100623.52;1799271;79;21184;-77
2021/01/17 08:31:02;;;;;;;149.53;68.33;;;;;;;-4.40;31.47;100617.70;1799085;79;21212;-78
2021/01/17 08:33:30;;;;;;;145.50;69.15;;;;;;;-4.23;31.74;100615.72;1767833;79;21176;-78
2021/01/17 08:35:59;;;;;;;152.40;69.58;;;;;;;-3.99;31.77;100616.52;1799062;79;21206;-79
2021/01/17 08:38:27;;;;;;;145.32;68.02;;;;;;;-3.79;31.58;100614.84;1799071;79;21076;-77
2021/01/17 08:40:56;;;;;;;151.07;69.05;;;;;;;-3.55;31.71;100609.87;1799471;79;21187;-78
2021/01/17 08:43:32;;;;;;;142.72;65.70;;;;;;;-3.30;31.67;100611.01;1799289;79;21195;-80
2021/01/17 08:46:00;;;;;;;152.53;65.20;;;;;;;-3.13;31.35;100603.27;1799314;79;21354;-78
2021/01/17 08:48:29;;;;;;;163.35;75.72;;;;;;;-2.99;31.55;100601.34;1799337;79;22752;-79
2021/01/17 08:51:15;;;;;;;160.78;71.53;;;;;;;-2.82;31.52;100607.11;1798582;79;21236;-78
2021/01/17 08:53:43;;;;;;;158.50;78.47;;;;;;;-2.72;31.15;100594.00;1799368;79;21152;-80
2021/01/17 08:56:21;;;;;;;171.80;76.82;;;;;;;-2.62;31.28;100595.27;1808932;78;21203;-80
2021/01/17 08:58:55;;;;;;;170.85;80.05;;;;;;;-2.51;31.25;100590.82;1836303;77;21700;-80
2021/01/17 09:01:25;;;;;;;171.90;79.37;;;;;;;-2.52;30.91;100588.28;1854807;77;21711;-77
2021/01/17 09:03:56;;;;;;;155.75;74.30;;;;;;;-2.61;30.82;100592.18;1814453;79;21188;-79
2021/01/17 09:06:31;;;;;;;148.80;70.40;;;;;;;-2.59;31.14;100589.89;1825193;78;21165;-77
2021/01/17 09:09:06;;;;;;;128.45;57.60;;;;;;;-2.49;31.33;100593.39;1855544;77;21192;-79
2021/01/17 09:11:38;;;;;;;145.10;64.83;;;;;;;-2.42;30.58;100589.54;1855164;77;21177;-81
2021/01/17 09:14:26;;;;;;;142.68;65.60;;;;;;;-2.58;30.71;100587.65;1841560;77;22276;-79
2021/01/17 09:16:57;;;;;;;143.72;64.45;;;;;;;-2.62;30.74;100584.78;1800912;79;21466;-78
2021/01/17 09:19:34;;;;;;;143.20;59.63;;;;;;;-2.63;30.86;100592.27;1843084;77;21152;-79
2021/01/17 09:22:04;;;;;;;132.10;63.13;;;;;;;-2.56;30.91;100586.25;1832762;77;21164;-77
2021/01/17 09:24:35;;;;;;;142.57;63.02;;;;;;;-2.49;30.90;100598.17;1825801;77;21560;-78
2021/01/17 09:27:06;;;;;;;139.90;66.87;;;;;;;-2.41;30.97;100599.10;1821748;78;21219;-78
2021/01/17 09:29:39;;;;;;;129.63;61.55;;;;;;;-2.30;30.84;100596.37;1822053;78;22127;-78
2021/01/17 09:32:15;;;;;;;118.13;48.15;;;;;;;-2.22;30.61;100594.70;1822327;78;21164;-79
2021/01/17 09:34:47;;;;;;;109.27;46.15;;;;;;;-2.37;30.32;100596.27;1822117;78;21204;-78
2021/01/17 09:37:19;;;;;;;103.67;43.35;;;;;;;-2.60;30.31;100588.63;1825669;77;21167;-79
2021/01/17 09:39:50;;;;;;;82.50;38.80;;;;;;;-2.71;30.70;100585.67;1787920;80;21417;-78
2021/01/17 09:42:19;;;;;;;93.72;44.25;;;;;;;-2.70;30.96;100583.43;1822454;78;21077;-78
2021/01/17 09:44:56;;;;;;;82.33;41.73;;;;;;;-2.67;31.09;100586.77;1788552;80;21701;-78
2021/01/17 09:47:25;;;;;;;83.92;38.48;;;;;;;-2.66;30.80;100590.23;1821965;78;21184;-77
2021/01/17 09:49:54;;;;;;;94.42;44.10;;;;;;;-2.72;31.14;100583.52;1788920;78;21671;-80
2021/01/17 09:52:24;;;;;;;83.37;38.88;;;;;;;-2.70;31.14;100586.05;1844374;77;21338;-77
2021/01/17 09:54:54;;;;;;;92.40;40.70;;;;;;;-2.62;31.33;100586.09;1855831;77;21565;-77
2021/01/17 09:57:24;;;;;;;106.78;48.85;;;;;;;-2.50;31.22;100590.36;1855277;77;21902;-79
2021/01/17 09:59:54;;;;;;;121.45;52.75;;;;;;;-2.41;31.41;100585.52;1854767;77;21238;-79
2021/01/17 10:02:24;;;;;;;105.30;47.73;;;;;;;-2.24;31.22;100580.80;1854606;77;21097;-79
2021/01/17 10:04:53;;;;;;;105.60;64.40;;;;;;;-2.08;31.12;100583.08;1791076;80;21353;-81
2021/01/17 10:07:22;;;;;;;91.12;51.40;;;;;;;-1.91;30.83;100584.00;1804288;78;21192;-78
2021/01/17 10:09:56;;;;;;;65.72;28.67;;;;;;;-1.85;30.48;100582.41;1821123;78;21238;-79
2021/01/17 10:12:24;;;;;;;46.18;22.42;;;;;;;-1.92;30.29;100586.25;1788089;80;21168;-79
2021/01/17 10:14:54;;;;;;;62.90;31.45;;;;;;;-2.12;30.06;100581.52;1825890;77;21173;-78
2021/01/17 10:17:27;;;;;;;63.35;32.23;;;;;;;-2.46;30.43;100571.78;1788545;80;21649;-79
2021/01/17 10:19:58;;;;;;;66.42;35.33;;;;;;;-2.60;30.75;100576.36;1821922;78;21621;-79
2021/01/17 10:22:27;;;;;;;62.17;30.90;;;;;;;-2.70;30.84;100572.48;1787095;80;21510;-79
2021/01/17 10:24:55;;;;;;;58.45;27.70;;;;;;;-2.86;30.80;100571.47;1821008;78;21529;-77
2021/01/17 10:27:23;;;;;;;59.67;29.18;;;;;;;-3.08;30.91;100569.84;1786847;80;21178;-77
2021/01/17 10:29:51;;;;;;;52.40;26.42;;;;;;;-3.34;30.94;100566.22;1821653;78;21225;-78
2021/01/17 10:32:19;;;;;;;54.63;30.05;;;;;;;-3.59;31.35;100562.06;1787708;80;21262;-79
2021/01/17 10:34:49;;;;;;;55.43;28.40;;;;;;;-3.72;32.04;100562.66;1792163;78;21171;-78
2021/01/17 10:37:17;;;;;;;48.48;24.52;;;;;;;-3.54;32.60;100551.82;1822114;78;21175;-78
2021/01/17 10:39:47;;;;;;;75.45;35.95;;;;;;;-3.29;32.23;100551.61;1819459;78;21184;-77
2021/01/17 10:42:23;;;;;;;69.40;33.83;;;;;;;-3.24;32.04;100553.09;1821581;78;22083;-78
2021/01/17 10:45:09;;;;;;;74.37;36.23;;;;;;;-3.21;31.95;100543.80;1825942;77;21180;-79
2021/01/17 10:47:49;;;;;;;67.30;33.78;;;;;;;-3.22;32.25;100539.49;1830357;78;21489;-81
2021/01/17 10:50:19;;;;;;;62.62;29.55;;;;;;;-3.03;32.50;100546.05;1833655;77;21176;-78
2021/01/17 10:53:23;;;;;;;73.57;34.55;;;;;;;-2.79;32.49;100551.94;1831407;77;21195;-78
2021/01/17 10:55:53;;;;;;;64.60;32.50;;;;;;;-2.62;32.28;100545.45;1790583;79;22639;-78
2021/01/17 10:58:37;;;;;;;61.63;31.37;;;;;;;-2.56;32.03;100546.45;1855307;77;21173;-76
2021/01/17 11:01:06;;;;;;;66.80;31.62;;;;;;;-2.56;31.69;100543.84;1793217;78;21119;-78
2021/01/17 11:03:39;;;;;;;65.90;32.05;;;;;;;-2.53;31.62;100545.48;1820585;78;21565;-77
2021/01/17 11:06:21;;;;;;;76.72;34.88;;;;;;;-2.49;31.51;100542.25;1821933;78;21097;-77
2021/01/17 11:08:53;;;;;;;75.30;34.67;;;;;;;-2.37;31.46;100545.58;1795655;78;21689;-77
2021/01/17 11:11:43;;;;;;;65.80;34.38;;;;;;;-2.26;31.61;100545.92;1787306;80;21434;-79
2021/01/17 11:14:12;;;;;;;66.70;34.15;;;;;;;-2.15;31.24;100545.39;1787549;80;21683;-78
2021/01/17 11:16:44;;;;;;;65.65;32.63;;;;;;;-2.16;31.01;100532.73;1799385;78;21153;-79
2021/01/17 11:19:14;;;;;;;53.10;27.77;;;;;;;-2.15;31.08;100533.11;1829309;77;21173;-79
2021/01/17 11:21:43;;;;;;;52.55;25.43;;;;;;;-2.15;31.21;100530.48;1824130;78;21204;-77
2021/01/17 11:24:12;;;;;;;46.20;22.45;;;;;;;-2.14;31.29;100527.40;1815017;79;21687;-77
2021/01/17 11:26:40;;;;;;;47.17;22.73;;;;;;;-2.10;31.43;100530.27;1810763;78;21121;-81